sensor_id;sensor_type;location;lat;lon;timestamp;pressure;altitude;pressure_sealevel;temperature;humidity
77737;BME280;66903;59.926;30.404;2023-08-06T00:04:02;101524.16;;;27.60;50.51
77737;BME280;66903;59.926;30.404;2023-08-06T00:09:03;101534.03;;;27.54;49.96
77737;BME280;66903;59.926;30.404;2023-08-06T00:14:03;101540.25;;;27.42;50.53
77737;BME280;66903;59.926;30.404;2023-08-06T00:19:04;101537.06;;;27.44;49.80
77737;BME280;66903;59.926;30.404;2023-08-06T00:24:04;101531.16;;;27.54;50.73
77737;BME280;66903;59.926;30.404;2023-08-06T00:29:05;101529.78;;;27.70;49.63
77737;BME280;66903;59.926;30.404;2023-08-06T00:34:05;101534.03;;;27.91;49.45
77737;BME280;66903;59.926;30.404;2023-08-06T00:39:06;101535.44;;;27.93;49.72
77737;BME280;66903;59.926;30.404;2023-08-06T00:44:07;101538.75;;;27.82;50.32
77737;BME280;66903;59.926;30.404;2023-08-06T00:49:08;101541.63;;;27.82;49.55
77737;BME280;66903;59.926;30.404;2023-08-06T00:54:09;101538.94;;;27.72;50.00
77737;BME280;66903;59.926;30.404;2023-08-06T00:59:10;101540.56;;;27.59;50.07
77737;BME280;66903;59.926;30.404;2023-08-06T01:04:12;101528.97;;;27.46;50.13
77737;BME280;66903;59.926;30.404;2023-08-06T01:19:43;101509.56;;;27.19;50.49
77737;BME280;66903;59.926;30.404;2023-08-06T01:24:48;101508.78;;;27.13;50.33
77737;BME280;66903;59.926;30.404;2023-08-06T01:30:06;101496.03;;;27.01;50.50
77737;BME280;66903;59.926;30.404;2023-08-06T01:35:10;101496.78;;;26.88;50.75
77737;BME280;66903;59.926;30.404;2023-08-06T01:40:12;101495.06;;;26.87;51.29
77737;BME280;66903;59.926;30.404;2023-08-06T01:45:13;101500.81;;;26.87;51.87
77737;BME280;66903;59.926;30.404;2023-08-06T01:50:14;101501.53;;;26.97;51.01
77737;BME280;66903;59.926;30.404;2023-08-06T01:55:14;101483.03;;;27.08;51.79
77737;BME280;66903;59.926;30.404;2023-08-06T02:00:15;101479.03;;;27.47;50.75
77737;BME280;66903;59.926;30.404;2023-08-06T02:05:16;101472.81;;;27.77;50.91
77737;BME280;66903;59.926;30.404;2023-08-06T02:10:16;101480.94;;;28.07;49.81
77737;BME280;66903;59.926;30.404;2023-08-06T02:15:17;101472.03;;;28.22;49.47
77737;BME280;66903;59.926;30.404;2023-08-06T02:20:17;101480.66;;;28.35;49.28
77737;BME280;66903;59.926;30.404;2023-08-06T02:25:18;101486.59;;;28.25;49.29
77737;BME280;66903;59.926;30.404;2023-08-06T02:30:18;101484.41;;;28.04;49.85
77737;BME280;66903;59.926;30.404;2023-08-06T02:35:19;101485.59;;;27.84;50.54
77737;BME280;66903;59.926;30.404;2023-08-06T02:40:19;101477.91;;;27.80;50.76
77737;BME280;66903;59.926;30.404;2023-08-06T02:45:20;101484.97;;;27.87;50.38
77737;BME280;66903;59.926;30.404;2023-08-06T02:50:20;101496.00;;;27.99;50.31
77737;BME280;66903;59.926;30.404;2023-08-06T02:55:21;101485.72;;;28.11;49.64
77737;BME280;66903;59.926;30.404;2023-08-06T03:00:22;101494.78;;;28.18;50.06
77737;BME280;66903;59.926;30.404;2023-08-06T03:05:22;101497.44;;;28.15;50.20
77737;BME280;66903;59.926;30.404;2023-08-06T03:10:23;101494.97;;;27.90;49.73
77737;BME280;66903;59.926;30.404;2023-08-06T03:15:23;101501.84;;;27.75;50.73
77737;BME280;66903;59.926;30.404;2023-08-06T03:20:25;101498.50;;;27.68;50.31
77737;BME280;66903;59.926;30.404;2023-08-06T03:25:25;101489.81;;;27.73;51.17
77737;BME280;66903;59.926;30.404;2023-08-06T03:30:26;101499.47;;;27.77;51.04
77737;BME280;66903;59.926;30.404;2023-08-06T03:35:26;101492.59;;;27.97;50.54
77737;BME280;66903;59.926;30.404;2023-08-06T03:40:27;101491.03;;;27.86;51.17
77737;BME280;66903;59.926;30.404;2023-08-06T03:45:27;101494.75;;;27.86;50.64
77737;BME280;66903;59.926;30.404;2023-08-06T03:50:28;101477.31;;;27.64;51.82
77737;BME280;66903;59.926;30.404;2023-08-06T03:55:28;101491.19;;;27.76;51.96
77737;BME280;66903;59.926;30.404;2023-08-06T04:00:29;101492.81;;;28.00;51.43
77737;BME280;66903;59.926;30.404;2023-08-06T04:05:31;101491.66;;;28.01;51.51
77737;BME280;66903;59.926;30.404;2023-08-06T04:10:33;101491.38;;;28.16;51.30
77737;BME280;66903;59.926;30.404;2023-08-06T04:15:34;101490.78;;;28.01;51.31
77737;BME280;66903;59.926;30.404;2023-08-06T04:20:35;101478.59;;;27.90;50.90
77737;BME280;66903;59.926;30.404;2023-08-06T04:25:42;101464.56;;;27.70;51.24
77737;BME280;66903;59.926;30.404;2023-08-06T04:30:42;101458.59;;;27.67;51.94
77737;BME280;66903;59.926;30.404;2023-08-06T04:35:43;101453.81;;;27.62;51.76
77737;BME280;66903;59.926;30.404;2023-08-06T04:40:43;101448.41;;;27.61;51.58
77737;BME280;66903;59.926;30.404;2023-08-06T04:45:51;101441.94;;;27.69;50.94
77737;BME280;66903;59.926;30.404;2023-08-06T04:50:53;101424.88;;;27.59;51.30
77737;BME280;66903;59.926;30.404;2023-08-06T04:55:54;101434.44;;;27.54;50.84
77737;BME280;66903;59.926;30.404;2023-08-06T05:00:55;101432.19;;;27.51;51.14
77737;BME280;66903;59.926;30.404;2023-08-06T05:05:55;101422.09;;;27.54;50.87
77737;BME280;66903;59.926;30.404;2023-08-06T05:10:56;101419.78;;;27.56;50.52
77737;BME280;66903;59.926;30.404;2023-08-06T05:15:57;101411.78;;;27.53;51.37
77737;BME280;66903;59.926;30.404;2023-08-06T05:20:57;101411.06;;;27.61;50.77
77737;BME280;66903;59.926;30.404;2023-08-06T05:25:58;101416.22;;;27.77;50.75
77737;BME280;66903;59.926;30.404;2023-08-06T05:30:58;101417.06;;;27.96;50.42
77737;BME280;66903;59.926;30.404;2023-08-06T05:35:59;101411.78;;;28.03;49.85
77737;BME280;66903;59.926;30.404;2023-08-06T05:40:59;101399.09;;;28.04;50.30
77737;BME280;66903;59.926;30.404;2023-08-06T05:46:00;101393.03;;;28.19;49.66
77737;BME280;66903;59.926;30.404;2023-08-06T05:51:00;101386.25;;;28.29;49.73
77737;BME280;66903;59.926;30.404;2023-08-06T05:56:01;101387.44;;;28.42;49.12
77737;BME280;66903;59.926;30.404;2023-08-06T06:01:02;101388.53;;;28.59;48.84
77737;BME280;66903;59.926;30.404;2023-08-06T06:06:02;101380.63;;;28.65;48.72
77737;BME280;66903;59.926;30.404;2023-08-06T06:11:03;101382.66;;;28.64;49.30
77737;BME280;66903;59.926;30.404;2023-08-06T06:16:04;101387.66;;;28.59;49.50
77737;BME280;66903;59.926;30.404;2023-08-06T06:21:05;101385.22;;;28.66;48.96
77737;BME280;66903;59.926;30.404;2023-08-06T06:26:06;101382.56;;;28.56;49.44
77737;BME280;66903;59.926;30.404;2023-08-06T06:31:06;101378.38;;;28.62;49.65
77737;BME280;66903;59.926;30.404;2023-08-06T06:36:08;101368.91;;;28.75;49.03
77737;BME280;66903;59.926;30.404;2023-08-06T06:41:10;101358.09;;;28.94;49.05
77737;BME280;66903;59.926;30.404;2023-08-06T06:46:10;101358.19;;;29.02;48.55
77737;BME280;66903;59.926;30.404;2023-08-06T06:51:11;101353.59;;;29.15;49.06
77737;BME280;66903;59.926;30.404;2023-08-06T06:56:11;101345.28;;;29.13;48.58
77737;BME280;66903;59.926;30.404;2023-08-06T07:01:12;101351.50;;;29.29;48.69
77737;BME280;66903;59.926;30.404;2023-08-06T07:06:12;101340.56;;;29.62;48.34
77737;BME280;66903;59.926;30.404;2023-08-06T07:11:13;101349.59;;;29.91;47.63
77737;BME280;66903;59.926;30.404;2023-08-06T07:16:14;101354.94;;;30.14;47.66
77737;BME280;66903;59.926;30.404;2023-08-06T07:21:14;101350.38;;;30.44;46.99
77737;BME280;66903;59.926;30.404;2023-08-06T07:26:16;101342.00;;;30.82;46.52
77737;BME280;66903;59.926;30.404;2023-08-06T07:31:16;101353.91;;;31.14;46.10
77737;BME280;66903;59.926;30.404;2023-08-06T07:36:17;101341.19;;;31.32;45.98
77737;BME280;66903;59.926;30.404;2023-08-06T07:41:17;101341.22;;;31.58;45.80
77737;BME280;66903;59.926;30.404;2023-08-06T07:46:18;101357.09;;;31.81;45.37
77737;BME280;66903;59.926;30.404;2023-08-06T07:51:18;101351.69;;;31.80;45.23
77737;BME280;66903;59.926;30.404;2023-08-06T07:56:19;101352.34;;;31.85;45.08
77737;BME280;66903;59.926;30.404;2023-08-06T08:01:20;101350.44;;;32.06;44.73
77737;BME280;66903;59.926;30.404;2023-08-06T08:06:20;101361.31;;;32.18;45.20
77737;BME280;66903;59.926;30.404;2023-08-06T08:11:21;101360.88;;;32.36;44.69
77737;BME280;66903;59.926;30.404;2023-08-06T08:16:21;101361.16;;;32.52;43.85
77737;BME280;66903;59.926;30.404;2023-08-06T08:21:22;101353.50;;;32.56;44.05
77737;BME280;66903;59.926;30.404;2023-08-06T08:26:24;101354.59;;;32.72;44.46
77737;BME280;66903;59.926;30.404;2023-08-06T08:31:25;101355.72;;;32.80;44.00
77737;BME280;66903;59.926;30.404;2023-08-06T08:36:25;101350.34;;;32.90;44.36
77737;BME280;66903;59.926;30.404;2023-08-06T08:41:29;101339.25;;;33.01;44.45
77737;BME280;66903;59.926;30.404;2023-08-06T08:46:31;101334.16;;;33.18;43.71
77737;BME280;66903;59.926;30.404;2023-08-06T08:51:35;101320.03;;;33.37;43.35
77737;BME280;66903;59.926;30.404;2023-08-06T08:56:36;101318.91;;;33.50;43.25
77737;BME280;66903;59.926;30.404;2023-08-06T09:01:39;101321.63;;;33.68;43.57
77737;BME280;66903;59.926;30.404;2023-08-06T09:06:41;101346.06;;;33.79;43.15
77737;BME280;66903;59.926;30.404;2023-08-06T09:11:44;101335.22;;;33.88;43.04
77737;BME280;66903;59.926;30.404;2023-08-06T09:16:44;101332.09;;;33.93;42.84
77737;BME280;66903;59.926;30.404;2023-08-06T09:21:46;101327.69;;;33.95;42.88
77737;BME280;66903;59.926;30.404;2023-08-06T09:26:49;101318.63;;;33.97;42.56
77737;BME280;66903;59.926;30.404;2023-08-06T09:31:50;101319.94;;;33.99;42.80
77737;BME280;66903;59.926;30.404;2023-08-06T09:36:54;101319.94;;;33.99;42.66
77737;BME280;66903;59.926;30.404;2023-08-06T09:41:59;101325.03;;;34.02;43.11
77737;BME280;66903;59.926;30.404;2023-08-06T09:47:02;101325.38;;;34.01;42.59
77737;BME280;66903;59.926;30.404;2023-08-06T09:52:03;101310.03;;;34.00;42.44
77737;BME280;66903;59.926;30.404;2023-08-06T09:57:05;101300.34;;;33.96;42.47
77737;BME280;66903;59.926;30.404;2023-08-06T10:02:12;101304.13;;;33.97;42.81
77737;BME280;66903;59.926;30.404;2023-08-06T10:07:13;101306.16;;;33.96;42.44
77737;BME280;66903;59.926;30.404;2023-08-06T10:12:15;101300.84;;;33.98;43.11
77737;BME280;66903;59.926;30.404;2023-08-06T10:17:19;101274.63;;;33.95;42.54
77737;BME280;66903;59.926;30.404;2023-08-06T10:22:19;101275.13;;;33.97;42.60
77737;BME280;66903;59.926;30.404;2023-08-06T10:27:21;101275.13;;;33.97;42.34
77737;BME280;66903;59.926;30.404;2023-08-06T10:32:48;101282.22;;;33.99;43.04
77737;BME280;66903;59.926;30.404;2023-08-06T10:37:49;101291.00;;;33.91;42.41
77737;BME280;66903;59.926;30.404;2023-08-06T10:42:50;101296.69;;;33.87;42.72
77737;BME280;66903;59.926;30.404;2023-08-06T10:47:50;101296.19;;;33.85;42.68
77737;BME280;66903;59.926;30.404;2023-08-06T10:52:51;101282.78;;;33.81;42.56
77737;BME280;66903;59.926;30.404;2023-08-06T10:57:52;101273.09;;;33.65;42.28
77737;BME280;66903;59.926;30.404;2023-08-06T11:02:53;101274.50;;;33.58;43.00
77737;BME280;66903;59.926;30.404;2023-08-06T11:07:55;101281.03;;;33.55;42.36
77737;BME280;66903;59.926;30.404;2023-08-06T11:13:01;101286.31;;;33.53;42.72
77737;BME280;66903;59.926;30.404;2023-08-06T11:18:02;101275.03;;;33.40;43.17
77737;BME280;66903;59.926;30.404;2023-08-06T11:23:03;101274.75;;;33.33;43.22
77737;BME280;66903;59.926;30.404;2023-08-06T11:28:04;101275.84;;;33.28;42.64
77737;BME280;66903;59.926;30.404;2023-08-06T11:33:07;101275.19;;;33.23;43.04
77737;BME280;66903;59.926;30.404;2023-08-06T11:38:09;101269.81;;;33.13;43.11
77737;BME280;66903;59.926;30.404;2023-08-06T11:43:10;101261.72;;;33.06;43.39
77737;BME280;66903;59.926;30.404;2023-08-06T11:48:11;101265.34;;;33.03;43.09
77737;BME280;66903;59.926;30.404;2023-08-06T11:53:13;101264.13;;;33.04;42.93
77737;BME280;66903;59.926;30.404;2023-08-06T11:58:17;101253.25;;;33.01;43.44
77737;BME280;66903;59.926;30.404;2023-08-06T12:03:19;101250.72;;;33.00;43.68
77737;BME280;66903;59.926;30.404;2023-08-06T12:08:20;101250.75;;;32.91;43.69
77737;BME280;66903;59.926;30.404;2023-08-06T12:13:21;101245.19;;;32.86;43.28
77737;BME280;66903;59.926;30.404;2023-08-06T12:18:21;101244.19;;;32.82;43.24
77737;BME280;66903;59.926;30.404;2023-08-06T12:23:22;101237.78;;;32.77;43.21
77737;BME280;66903;59.926;30.404;2023-08-06T12:28:23;101243.91;;;32.75;43.34
77737;BME280;66903;59.926;30.404;2023-08-06T12:33:23;101227.59;;;32.71;43.45
77737;BME280;66903;59.926;30.404;2023-08-06T12:38:24;101239.03;;;32.67;43.34
77737;BME280;66903;59.926;30.404;2023-08-06T12:43:24;101239.75;;;32.64;43.71
77737;BME280;66903;59.926;30.404;2023-08-06T12:48:25;101216.81;;;32.59;43.90
77737;BME280;66903;59.926;30.404;2023-08-06T12:53:25;101221.75;;;32.59;43.77
77737;BME280;66903;59.926;30.404;2023-08-06T12:58:26;101216.31;;;32.57;43.58
77737;BME280;66903;59.926;30.404;2023-08-06T13:03:26;101200.88;;;32.53;43.52
77737;BME280;66903;59.926;30.404;2023-08-06T13:08:28;101213.13;;;32.50;43.76
77737;BME280;66903;59.926;30.404;2023-08-06T13:13:28;101189.84;;;32.46;43.88
77737;BME280;66903;59.926;30.404;2023-08-06T13:18:29;101198.16;;;32.48;43.59
77737;BME280;66903;59.926;30.404;2023-08-06T13:23:31;101187.31;;;32.45;43.55
77737;BME280;66903;59.926;30.404;2023-08-06T13:28:32;101183.25;;;32.46;44.23
77737;BME280;66903;59.926;30.404;2023-08-06T13:33:32;101196.13;;;32.48;43.76
77737;BME280;66903;59.926;30.404;2023-08-06T13:38:33;101185.28;;;32.45;43.69
77737;BME280;66903;59.926;30.404;2023-08-06T13:43:33;101192.59;;;32.43;44.40
77737;BME280;66903;59.926;30.404;2023-08-06T13:48:34;101193.28;;;32.40;44.14
77737;BME280;66903;59.926;30.404;2023-08-06T13:53:34;101177.81;;;32.36;43.86
77737;BME280;66903;59.926;30.404;2023-08-06T13:58:35;101178.88;;;32.31;43.89
77737;BME280;66903;59.926;30.404;2023-08-06T14:03:35;101183.81;;;32.31;44.04
77737;BME280;66903;59.926;30.404;2023-08-06T14:08:36;101178.38;;;32.29;44.18
77737;BME280;66903;59.926;30.404;2023-08-06T14:13:36;101183.31;;;32.29;44.52
77737;BME280;66903;59.926;30.404;2023-08-06T14:18:37;101171.25;;;32.27;44.71
77737;BME280;66903;59.926;30.404;2023-08-06T14:23:38;101166.31;;;32.27;44.97
77737;BME280;66903;59.926;30.404;2023-08-06T14:28:41;101155.59;;;32.28;45.12
77737;BME280;66903;59.926;30.404;2023-08-06T14:33:42;101155.09;;;32.26;45.40
77737;BME280;66903;59.926;30.404;2023-08-06T14:38:43;101160.38;;;32.24;45.31
77737;BME280;66903;59.926;30.404;2023-08-06T14:43:43;101163.28;;;32.24;45.40
77737;BME280;66903;59.926;30.404;2023-08-06T14:48:44;101150.03;;;32.23;45.59
77737;BME280;66903;59.926;30.404;2023-08-06T14:53:44;101151.56;;;32.20;45.43
77737;BME280;66903;59.926;30.404;2023-08-06T14:58:45;101138.31;;;32.19;45.70
77737;BME280;66903;59.926;30.404;2023-08-06T15:03:45;101143.97;;;32.16;45.72
77737;BME280;66903;59.926;30.404;2023-08-06T15:08:46;101142.25;;;32.15;45.95
77737;BME280;66903;59.926;30.404;2023-08-06T15:13:48;101137.69;;;32.14;45.61
77737;BME280;66903;59.926;30.404;2023-08-06T15:18:48;101135.16;;;32.12;45.62
77737;BME280;66903;59.926;30.404;2023-08-06T15:23:49;101128.00;;;32.10;45.84
77737;BME280;66903;59.926;30.404;2023-08-06T15:28:50;101125.81;;;32.07;45.95
77737;BME280;66903;59.926;30.404;2023-08-06T15:33:50;101124.63;;;32.08;45.85
77737;BME280;66903;59.926;30.404;2023-08-06T15:38:51;101124.63;;;32.08;46.24
77737;BME280;66903;59.926;30.404;2023-08-06T15:43:51;101128.72;;;32.07;46.21
77737;BME280;66903;59.926;30.404;2023-08-06T15:48:52;101135.69;;;32.06;46.24
77737;BME280;66903;59.926;30.404;2023-08-06T15:53:52;101133.16;;;32.04;46.60
77737;BME280;66903;59.926;30.404;2023-08-06T15:58:53;101126.03;;;32.02;46.66
77737;BME280;66903;59.926;30.404;2023-08-06T16:03:54;101126.88;;;32.02;46.58
77737;BME280;66903;59.926;30.404;2023-08-06T16:08:55;101117.00;;;32.03;46.83
77737;BME280;66903;59.926;30.404;2023-08-06T16:13:55;101117.16;;;32.07;46.76
77737;BME280;66903;59.926;30.404;2023-08-06T16:18:56;101109.66;;;32.06;46.95
77737;BME280;66903;59.926;30.404;2023-08-06T16:23:56;101116.31;;;32.06;47.08
77737;BME280;66903;59.926;30.404;2023-08-06T16:28:57;101118.84;;;32.08;47.33
77737;BME280;66903;59.926;30.404;2023-08-06T16:33:58;101118.00;;;32.07;47.33
77737;BME280;66903;59.926;30.404;2023-08-06T16:38:58;101114.25;;;32.07;47.16
77737;BME280;66903;59.926;30.404;2023-08-06T16:43:59;101114.75;;;32.09;47.18
77737;BME280;66903;59.926;30.404;2023-08-06T16:48:59;101128.38;;;32.08;47.31
77737;BME280;66903;59.926;30.404;2023-08-06T16:54:00;101130.41;;;32.08;47.29
77737;BME280;66903;59.926;30.404;2023-08-06T16:59:00;101123.78;;;32.07;47.37
77737;BME280;66903;59.926;30.404;2023-08-06T17:04:01;101109.34;;;32.07;47.27
77737;BME280;66903;59.926;30.404;2023-08-06T17:09:03;101111.53;;;32.10;47.71
77737;BME280;66903;59.926;30.404;2023-08-06T17:14:03;101112.38;;;32.11;47.81
77737;BME280;66903;59.926;30.404;2023-08-06T17:19:04;101109.13;;;32.12;47.39
77737;BME280;66903;59.926;30.404;2023-08-06T17:24:04;101109.47;;;32.11;47.59
77737;BME280;66903;59.926;30.404;2023-08-06T17:29:05;101115.13;;;32.07;47.79
77737;BME280;66903;59.926;30.404;2023-08-06T17:34:06;101108.47;;;32.07;47.80
77737;BME280;66903;59.926;30.404;2023-08-06T17:39:06;101108.00;;;32.05;47.93
77737;BME280;66903;59.926;30.404;2023-08-06T17:44:07;101114.97;;;32.04;47.93
77737;BME280;66903;59.926;30.404;2023-08-06T17:49:07;101108.69;;;32.02;48.04
77737;BME280;66903;59.926;30.404;2023-08-06T17:54:08;101108.19;;;32.00;47.86
77737;BME280;66903;59.926;30.404;2023-08-06T17:59:08;101107.69;;;31.98;47.84
77737;BME280;66903;59.926;30.404;2023-08-06T18:04:09;101105.53;;;31.95;47.66
77737;BME280;66903;59.926;30.404;2023-08-06T18:09:09;101110.78;;;31.93;48.16
77737;BME280;66903;59.926;30.404;2023-08-06T18:14:10;101104.50;;;31.91;47.85
77737;BME280;66903;59.926;30.404;2023-08-06T18:19:10;101112.69;;;31.89;47.96
77737;BME280;66903;59.926;30.404;2023-08-06T18:24:11;101113.00;;;31.87;48.29
77737;BME280;66903;59.926;30.404;2023-08-06T18:29:11;101105.03;;;31.84;48.15
77737;BME280;66903;59.926;30.404;2023-08-06T18:34:12;101101.31;;;31.84;48.04
77737;BME280;66903;59.926;30.404;2023-08-06T18:39:13;101107.06;;;31.84;48.13
77737;BME280;66903;59.926;30.404;2023-08-06T18:44:13;101103.69;;;31.82;48.18
77737;BME280;66903;59.926;30.404;2023-08-06T18:49:14;101091.78;;;31.83;48.42
77737;BME280;66903;59.926;30.404;2023-08-06T18:54:15;101098.63;;;31.79;48.35
77737;BME280;66903;59.926;30.404;2023-08-06T18:59:15;101089.09;;;31.78;48.10
77737;BME280;66903;59.926;30.404;2023-08-06T19:04:20;101096.09;;;31.77;48.48
77737;BME280;66903;59.926;30.404;2023-08-06T19:09:21;101083.31;;;31.78;48.35
77737;BME280;66903;59.926;30.404;2023-08-06T19:14:21;101084.16;;;31.79;49.26
77737;BME280;66903;59.926;30.404;2023-08-06T19:19:23;101083.31;;;31.78;49.11
77737;BME280;66903;59.926;30.404;2023-08-06T19:24:23;101067.53;;;31.76;49.31
77737;BME280;66903;59.926;30.404;2023-08-06T19:29:25;101065.47;;;31.76;49.43
77737;BME280;66903;59.926;30.404;2023-08-06T19:34:25;101077.03;;;31.76;49.93
77737;BME280;66903;59.926;30.404;2023-08-06T19:39:26;101075.34;;;31.75;50.29
77737;BME280;66903;59.926;30.404;2023-08-06T19:44:27;101072.97;;;31.77;50.41
77737;BME280;66903;59.926;30.404;2023-08-06T19:49:27;101075.84;;;31.77;50.52
77737;BME280;66903;59.926;30.404;2023-08-06T19:54:28;101075.34;;;31.75;50.70
77737;BME280;66903;59.926;30.404;2023-08-06T19:59:28;101071.09;;;31.73;50.63
77737;BME280;66903;59.926;30.404;2023-08-06T20:04:29;101070.59;;;31.71;50.54
77737;BME280;66903;59.926;30.404;2023-08-06T20:09:29;101069.78;;;31.70;50.42
77737;BME280;66903;59.926;30.404;2023-08-06T20:14:30;101070.59;;;31.71;51.39
77737;BME280;66903;59.926;30.404;2023-08-06T20:19:31;101060.91;;;31.75;51.14
77737;BME280;66903;59.926;30.404;2023-08-06T20:24:32;101054.28;;;31.75;51.84
77737;BME280;66903;59.926;30.404;2023-08-06T20:29:32;101060.13;;;31.66;52.61
77737;BME280;66903;59.926;30.404;2023-08-06T20:34:33;101056.50;;;31.48;52.82
77737;BME280;66903;59.926;30.404;2023-08-06T20:39:35;101056.38;;;31.36;53.15
77737;BME280;66903;59.926;30.404;2023-08-06T20:44:36;101044.34;;;31.26;53.79
77737;BME280;66903;59.926;30.404;2023-08-06T20:49:37;101044.91;;;31.19;54.52
77737;BME280;66903;59.926;30.404;2023-08-06T20:54:37;101047.25;;;31.26;55.62
77737;BME280;66903;59.926;30.404;2023-08-06T20:59:38;101039.41;;;31.35;54.95
77737;BME280;66903;59.926;30.404;2023-08-06T21:04:41;101042.75;;;31.45;54.26
77737;BME280;66903;59.926;30.404;2023-08-06T21:09:41;101030.28;;;31.54;55.11
77737;BME280;66903;59.926;30.404;2023-08-06T21:14:42;101026.50;;;31.62;54.91
77737;BME280;66903;59.926;30.404;2023-08-06T21:19:43;101024.66;;;31.57;54.64
77737;BME280;66903;59.926;30.404;2023-08-06T21:24:43;101012.81;;;31.50;54.72
77737;BME280;66903;59.926;30.404;2023-08-06T21:29:44;101011.63;;;31.51;54.50
77737;BME280;66903;59.926;30.404;2023-08-06T21:34:44;101004.84;;;31.47;53.92
77737;BME280;66903;59.926;30.404;2023-08-06T21:39:45;101001.81;;;31.43;54.60
77737;BME280;66903;59.926;30.404;2023-08-06T21:44:46;101004.00;;;31.46;55.46
77737;BME280;66903;59.926;30.404;2023-08-06T21:49:46;101003.50;;;31.44;55.37
77737;BME280;66903;59.926;30.404;2023-08-06T21:54:47;101012.53;;;31.43;55.38
77737;BME280;66903;59.926;30.404;2023-08-06T21:59:47;101011.66;;;31.42;54.90
77737;BME280;66903;59.926;30.404;2023-08-06T22:04:48;101010.69;;;31.38;55.18
77737;BME280;66903;59.926;30.404;2023-08-06T22:09:48;101014.06;;;31.32;55.12
77737;BME280;66903;59.926;30.404;2023-08-06T22:14:49;101013.09;;;31.28;55.58
77737;BME280;66903;59.926;30.404;2023-08-06T22:19:49;101010.56;;;31.26;55.37
77737;BME280;66903;59.926;30.404;2023-08-06T22:24:50;101017.72;;;31.20;55.96
77737;BME280;66903;59.926;30.404;2023-08-06T22:29:50;101008.06;;;31.16;55.72
77737;BME280;66903;59.926;30.404;2023-08-06T22:34:51;101004.03;;;31.09;56.28
77737;BME280;66903;59.926;30.404;2023-08-06T22:39:52;101008.13;;;30.99;55.98
77737;BME280;66903;59.926;30.404;2023-08-06T22:44:58;101005.13;;;30.87;56.33
77737;BME280;66903;59.926;30.404;2023-08-06T22:49:59;100991.09;;;30.69;56.44
77737;BME280;66903;59.926;30.404;2023-08-06T22:55:00;100990.94;;;30.57;56.65
77737;BME280;66903;59.926;30.404;2023-08-06T23:00:01;100983.72;;;30.42;56.80
77737;BME280;66903;59.926;30.404;2023-08-06T23:05:05;100987.44;;;30.34;57.24
77737;BME280;66903;59.926;30.404;2023-08-06T23:10:06;100982.00;;;30.24;57.32
77737;BME280;66903;59.926;30.404;2023-08-06T23:15:07;100972.19;;;30.16;57.81
77737;BME280;66903;59.926;30.404;2023-08-06T23:20:08;100985.78;;;30.16;57.74
77737;BME280;66903;59.926;30.404;2023-08-06T23:25:09;100982.38;;;30.14;57.78
77737;BME280;66903;59.926;30.404;2023-08-06T23:30:10;100992.03;;;30.09;57.29
77737;BME280;66903;59.926;30.404;2023-08-06T23:35:10;100985.94;;;30.02;57.98
77737;BME280;66903;59.926;30.404;2023-08-06T23:40:11;100987.47;;;30.00;58.32
77737;BME280;66903;59.926;30.404;2023-08-06T23:45:12;100988.31;;;29.92;57.90
77737;BME280;66903;59.926;30.404;2023-08-06T23:50:13;100987.44;;;29.83;58.07
77737;BME280;66903;59.926;30.404;2023-08-06T23:55:14;100996.25;;;29.78;58.16
